createdAt,value
2023-04-04T00:02:01.639Z,68.37
2023-04-04T00:07:03.345Z,68.57
2023-04-04T00:12:05.986Z,68.90
2023-04-04T00:17:07.666Z,69.12
2023-04-04T00:22:09.361Z,69.49
2023-04-04T00:27:11.020Z,69.39
2023-04-04T00:32:12.766Z,69.65
2023-04-04T00:37:14.673Z,70.11
2023-04-04T00:42:16.321Z,70.09
2023-04-04T00:47:17.984Z,70.04
2023-04-04T00:52:19.949Z,70.00
2023-04-04T00:57:22.534Z,70.21
2023-04-04T01:02:25.620Z,70.28
2023-04-04T01:07:27.648Z,70.49
2023-04-04T01:12:30.222Z,70.29
2023-04-04T01:17:32.460Z,70.36
2023-04-04T01:22:36.008Z,70.38
2023-04-04T01:27:38.810Z,70.63
2023-04-04T01:32:59.676Z,71.05
2023-04-04T01:38:52.127Z,71.22
2023-04-04T01:43:56.309Z,71.50
2023-04-04T01:48:58.909Z,71.71
2023-04-04T01:54:04.898Z,71.76
2023-04-04T01:59:07.380Z,71.81
2023-04-04T02:04:11.349Z,72.10
2023-04-04T02:09:13.906Z,71.99
2023-04-04T02:14:16.368Z,72.22
2023-04-04T02:19:18.846Z,72.37
2023-04-04T02:24:20.558Z,72.76
2023-04-04T02:29:23.119Z,72.80
2023-04-04T02:34:25.878Z,72.85
2023-04-04T02:39:27.969Z,72.66
2023-04-04T02:44:30.418Z,73.34
2023-04-04T02:49:32.958Z,73.32
2023-04-04T02:54:35.379Z,72.86
2023-04-04T02:59:38.498Z,72.75
2023-04-04T03:04:40.657Z,72.56
2023-04-04T03:09:45.193Z,72.55
2023-04-04T03:14:47.600Z,72.75
2023-04-04T03:19:49.463Z,73.25
2023-04-04T03:24:51.224Z,73.29
2023-04-04T03:29:54.929Z,73.41
2023-04-04T03:34:56.912Z,73.77
2023-04-04T03:39:58.544Z,73.70
2023-04-04T03:45:00.854Z,73.48
2023-04-04T03:50:06.731Z,73.91
2023-04-04T03:55:09.994Z,74.44
2023-04-04T04:00:12.434Z,74.60
2023-04-04T20:09:34.927Z,65.35
2023-04-04T20:14:37.163Z,69.88
2023-04-04T20:19:38.874Z,67.39
2023-04-04T20:24:42.609Z,66.64
2023-04-04T20:29:44.616Z,67.70
2023-04-04T20:34:49.313Z,67.43
2023-04-04T20:39:55.806Z,66.47
2023-04-04T20:45:31.913Z,64.66
2023-04-04T20:50:33.558Z,63.76
2023-04-04T20:55:35.803Z,64.63
2023-04-04T21:00:42.363Z,64.36
2023-04-04T21:05:44.808Z,65.90
2023-04-04T21:10:53.004Z,66.91
2023-04-04T21:16:00.723Z,67.29
2023-04-04T21:21:11.909Z,67.67
2023-04-04T21:26:37.104Z,69.29
2023-04-04T21:31:41.241Z,67.36
2023-04-04T21:36:45.083Z,67.54
2023-04-04T21:41:50.427Z,69.51
2023-04-04T21:46:55.243Z,69.13
2023-04-04T21:51:56.953Z,70.06
2023-04-04T21:57:00.913Z,68.91
2023-04-04T22:02:02.777Z,67.75
2023-04-04T22:07:04.494Z,67.58
2023-04-04T22:12:16.014Z,67.42
2023-04-04T22:17:24.004Z,67.53
2023-04-04T22:22:30.400Z,68.31
2023-04-04T22:27:33.225Z,68.11
2023-04-04T22:32:35.255Z,69.47
2023-04-04T22:37:38.630Z,70.10
2023-04-04T22:42:40.632Z,69.81
2023-04-04T22:47:47.364Z,69.78
2023-04-04T22:52:49.744Z,69.62
2023-04-04T22:57:51.567Z,70.22
2023-04-04T23:02:53.272Z,70.27
2023-04-04T23:08:01.397Z,67.92
2023-04-04T23:13:08.564Z,68.67
2023-04-04T23:18:11.467Z,70.59
2023-04-04T23:23:13.652Z,69.89
2023-04-04T23:28:16.488Z,69.25
2023-04-04T23:33:18.229Z,69.94
2023-04-04T23:38:19.843Z,70.48
2023-04-04T23:43:22.593Z,71.30
2023-04-04T23:48:25.422Z,71.29
2023-04-04T23:53:29.667Z,71.45
2023-04-04T23:58:31.357Z,70.84
